Time;durP1;ratioP1;P1;durP2;ratioP2;P2;SDS_P1;SDS_P2;PMS_P1;PMS_P2;Temp;Humidity;BMP_temperature;BMP_pressure;BME280_temperature;BME280_humidity;BME280_pressure;Samples;Min_cycle;Max_cycle;Signal;HPM_P1;HPM_P2
2022/02/23 00:00:18;;;;;;;;;;;;;;;21.99;27.88;97615.28;5056670;28;1052;-78
2022/02/23 00:02:44;;;;;;;;;;;;;;;21.99;28.06;97615.28;5055241;28;1272;-78
2022/02/23 00:05:09;;;;;;;;;;;;;;;21.99;27.86;97620.97;5056843;28;1985;-78
2022/02/23 00:07:35;;;;;;;;;;;;;;;22.00;27.96;97619.69;5055602;28;992;-77
2022/02/23 00:10:00;;;;;;;;;;;;;;;21.95;28.08;97621.06;5016606;28;1290;-77
2022/02/23 00:12:26;;;;;;;;;;;;;;;21.98;28.07;97619.38;5015586;28;906;-78
2022/02/23 00:14:51;;;;;;;;;;;;;;;22.04;27.98;97624.00;5015992;28;1072;-78
2022/02/23 00:17:17;;;;;;;;;;;;;;;22.41;27.25;97617.91;4997780;28;963;-78
2022/02/23 00:19:43;;;;;;;;;;;;;;;22.58;27.11;97622.13;5035960;28;933;-77
2022/02/23 00:22:08;;;;;;;;;;;;;;;22.07;27.60;97622.28;5036104;28;1005;-78
2022/02/23 00:24:34;;;;;;;;;;;;;;;21.96;27.64;97616.19;5035025;28;1974;-77
2022/02/23 00:26:59;;;;;;;;;;;;;;;21.98;27.71;97619.38;5035812;28;1035;-78
2022/02/23 00:29:25;;;;;;;;;;;;;;;21.92;28.06;97618.38;5035351;28;1036;-77
2022/02/23 00:31:50;;;;;;;;;;;;;;;21.87;28.10;97619.75;5036349;28;999;-78
2022/02/23 00:34:15;;;;;;;;;;;;;;;21.77;28.45;97613.19;5035188;28;1061;-79
2022/02/23 00:36:41;;;;;;;;;;;;;;;22.36;27.50;97616.44;5035687;28;965;-77
2022/02/23 00:39:06;;;;;;;;;;;;;;;22.48;27.09;97617.63;5035153;28;1007;-79
2022/02/23 00:41:32;;;;;;;;;;;;;;;22.35;27.30;97614.88;5024575;28;1105;-76
2022/02/23 00:43:57;;;;;;;;;;;;;;;22.05;27.44;97602.91;5035208;28;1980;-78
2022/02/23 00:46:23;;;;;;;;;;;;;;;21.90;27.92;97607.47;5002944;28;1008;-78
2022/02/23 00:48:48;;;;;;;;;;;;;;;21.96;27.79;97605.66;5034702;28;961;-77
2022/02/23 00:51:14;;;;;;;;;;;;;;;22.31;27.31;97614.97;5035130;28;1116;-76
2022/02/23 00:53:39;;;;;;;;;;;;;;;22.53;27.01;97617.03;5034643;28;1073;-78
2022/02/23 00:56:05;;;;;;;;;;;;;;;22.21;27.52;97621.81;5035454;28;944;-78
2022/02/23 00:58:30;;;;;;;;;;;;;;;22.01;27.61;97612.78;5035075;28;1106;-78
2022/02/23 01:00:56;;;;;;;;;;;;;;;22.07;27.41;97613.78;5035236;28;1038;-78
2022/02/23 01:03:21;;;;;;;;;;;;;;;22.15;27.92;97612.31;4995140;28;1969;-76
2022/02/23 01:05:46;;;;;;;;;;;;;;;22.35;27.45;97615.66;4957241;28;917;-79
2022/02/23 01:08:12;;;;;;;;;;;;;;;22.59;27.04;97618.06;4955962;28;974;-78
2022/02/23 01:10:37;;;;;;;;;;;;;;;22.21;27.25;97621.81;4957650;28;1017;-79
2022/02/23 01:13:03;;;;;;;;;;;;;;;22.01;27.61;97618.44;4983803;28;937;-78
2022/02/23 01:15:28;;;;;;;;;;;;;;;21.84;27.79;97626.31;4996168;28;1034;-77
2022/02/23 01:17:54;;;;;;;;;;;;;;;22.12;27.83;97635.91;4962240;28;950;-77
2022/02/23 01:20:19;;;;;;;;;;;;;;;22.43;27.41;97643.75;4996075;28;928;-78
2022/02/23 01:22:45;;;;;;;;;;;;;;;22.35;26.96;97654.56;4975233;28;989;-77
2022/02/23 01:25:10;;;;;;;;;;;;;;;22.05;27.36;97659.56;4976637;28;1910;-78
2022/02/23 01:27:36;;;;;;;;;;;;;;;22.02;27.42;97665.34;4975512;28;919;-78
2022/02/23 01:30:02;;;;;;;;;;;;;;;21.99;27.45;97666.28;4976414;28;981;-77
2022/02/23 01:32:27;;;;;;;;;;;;;;;22.31;27.66;97676.56;4975379;28;1189;-78
2022/02/23 01:34:53;;;;;;;;;;;;;;;22.52;27.32;97677.84;4990057;28;987;-78
2022/02/23 01:37:18;;;;;;;;;;;;;;;22.28;27.35;97678.28;4998382;28;981;-78
2022/02/23 01:39:44;;;;;;;;;;;;;;;22.02;27.78;97690.84;5015488;28;922;-78
2022/02/23 01:42:11;;;;;;;;;;;;;;;21.90;27.56;97694.50;5014665;28;949;-78
2022/02/23 01:44:36;;;;;;;;;;;;;;;22.09;27.91;97697.09;5014714;28;1922;-78
2022/02/23 01:47:02;;;;;;;;;;;;;;;22.45;27.33;97695.13;5015249;28;1009;-77
2022/02/23 01:49:27;;;;;;;;;;;;;;;22.58;26.78;97701.53;5014051;28;983;-77
2022/02/23 01:51:53;;;;;;;;;;;;;;;22.23;27.42;97704.34;5014813;28;1011;-75
2022/02/23 01:54:18;;;;;;;;;;;;;;;21.97;27.69;97711.28;5028321;28;1014;-78
2022/02/23 01:56:44;;;;;;;;;;;;;;;21.91;27.69;97710.25;5034780;28;1165;-78
2022/02/23 01:59:09;;;;;;;;;;;;;;;21.84;28.01;97723.41;5034335;28;971;-78
2022/02/23 02:01:35;;;;;;;;;;;;;;;22.34;27.51;97724.63;5001622;28;1064;-77
2022/02/23 02:04:00;;;;;;;;;;;;;;;22.59;26.97;97737.16;5034546;28;1910;-78
2022/02/23 02:06:26;;;;;;;;;;;;;;;22.29;27.42;97733.72;5034481;28;974;-77
2022/02/23 02:08:51;;;;;;;;;;;;;;;22.05;27.22;97726.78;5034192;28;962;-78
2022/02/23 02:11:17;;;;;;;;;;;;;;;22.00;27.42;97728.16;5018200;28;1139;-78
2022/02/23 02:13:42;;;;;;;;;;;;;;;22.02;28.05;97727.69;5036714;28;954;-78
2022/02/23 02:16:07;;;;;;;;;;;;;;;22.25;27.39;97735.84;5077350;28;860;-77
2022/02/23 02:18:33;;;;;;;;;;;;;;;22.41;27.14;97742.63;5013416;28;1124;-76
2022/02/23 02:20:58;;;;;;;;;;;;;;;22.02;27.79;97745.50;5014472;28;930;-78
2022/02/23 02:23:24;;;;;;;;;;;;;;;21.98;27.50;97749.69;5013971;28;1980;-77
2022/02/23 02:25:49;;;;;;;;;;;;;;;21.79;27.77;97755.13;5014750;28;935;-79
2022/02/23 02:28:15;;;;;;;;;;;;;;;22.23;27.36;97746.88;5013663;28;926;-78
2022/02/23 02:30:40;;;;;;;;;;;;;;;22.55;26.95;97754.28;4995248;28;959;-78
2022/02/23 02:33:05;;;;;;;;;;;;;;;22.50;26.75;97739.91;4993705;28;969;-79
2022/02/23 02:35:36;;;;;;;;;;;;;;;22.16;27.37;97744.25;4995984;28;958;-79
2022/02/23 02:38:04;;;;;;;;;;;;;;;22.00;27.22;97741.53;4935684;29;1254;-78
2022/02/23 02:40:30;;;;;;;;;;;;;;;22.04;27.49;97751.50;4937601;29;864;-78
2022/02/23 02:42:55;;;;;;;;;;;;;;;22.47;27.16;97757.81;4935977;29;1141;-77
2022/02/23 02:45:23;;;;;;;;;;;;;;;22.75;26.75;97761.72;4924106;29;1919;-78
2022/02/23 02:47:48;;;;;;;;;;;;;;;22.18;27.37;97770.13;4936337;29;946;-78
2022/02/23 02:50:13;;;;;;;;;;;;;;;22.07;27.23;97764.75;4967236;28;992;-78
2022/02/23 02:52:39;;;;;;;;;;;;;;;21.98;27.57;97778.03;4974151;28;992;-77
2022/02/23 02:55:05;;;;;;;;;;;;;;;22.34;27.19;97778.47;4975294;28;979;-78
2022/02/23 02:57:30;;;;;;;;;;;;;;;22.35;27.35;97771.56;4974397;28;993;-79
2022/02/23 02:59:56;;;;;;;;;;;;;;;22.24;27.27;97773.16;4975353;28;956;-79
2022/02/23 03:02:21;;;;;;;;;;;;;;;22.01;27.50;97771.44;5005067;28;1077;-77
2022/02/23 03:04:47;;;;;;;;;;;;;;;21.82;27.78;97782.53;5013738;28;1914;-79
2022/02/23 03:07:12;;;;;;;;;;;;;;;22.00;28.21;97786.84;5013701;28;985;-78
2022/02/23 03:09:38;;;;;;;;;;;;;;;22.43;27.33;97768.47;5062625;28;928;-78
2022/02/23 03:12:03;;;;;;;;;;;;;;;22.39;27.05;97768.63;5076221;28;1017;-78
2022/02/23 03:14:29;;;;;;;;;;;;;;;22.01;27.38;97777.88;5075784;28;1170;-79
2022/02/23 03:16:54;;;;;;;;;;;;;;;22.04;27.33;97764.88;5076482;28;1043;-78
2022/02/23 03:19:20;;;;;;;;;;;;;;;21.95;27.58;97765.53;5040123;28;1155;-77
2022/02/23 03:21:45;;;;;;;;;;;;;;;22.24;27.60;97761.84;5076183;28;1323;-78
2022/02/23 03:24:10;;;;;;;;;;;;;;;22.48;26.83;97767.91;5075378;28;1975;-78
2022/02/23 03:26:36;;;;;;;;;;;;;;;22.23;27.18;97761.03;5076361;28;951;-79
2022/02/23 03:29:01;;;;;;;;;;;;;;;21.99;27.69;97768.28;5076052;28;900;-77
2022/02/23 03:31:27;;;;;;;;;;;;;;;21.87;27.76;97764.19;5079557;28;1001;-77
2022/02/23 03:33:52;;;;;;;;;;;;;;;22.35;27.13;97763.06;5078777;28;1002;-78
2022/02/23 03:36:18;;;;;;;;;;;;;;;22.60;26.69;97767.09;5079186;28;967;-78
2022/02/23 03:38:44;;;;;;;;;;;;;;;22.36;26.77;97778.81;5078852;28;912;-77
2022/02/23 03:41:10;;;;;;;;;;;;;;;22.06;27.04;97779.38;5079514;28;856;-78
2022/02/23 03:43:35;;;;;;;;;;;;;;;21.98;27.16;97772.34;5078640;28;1963;-77
2022/02/23 03:46:00;;;;;;;;;;;;;;;22.34;27.21;97778.47;5079310;28;974;-79
2022/02/23 03:48:26;;;;;;;;;;;;;;;22.50;26.86;97779.59;5078996;28;914;-78
2022/02/23 03:50:51;;;;;;;;;;;;;;;22.35;26.47;97768.72;5056629;28;1007;-78
2022/02/23 03:53:17;;;;;;;;;;;;;;;22.14;26.79;97772.25;5038865;28;1039;-78
2022/02/23 03:55:42;;;;;;;;;;;;;;;22.05;26.88;97760.78;5057351;28;981;-78
2022/02/23 03:58:09;;;;;;;;;;;;;;;22.24;27.57;97765.47;5055884;28;1120;-77
2022/02/23 04:00:34;;;;;;;;;;;;;;;22.43;26.98;97768.47;5057120;28;1006;-77
2022/02/23 04:03:00;;;;;;;;;;;;;;;22.53;26.57;97775.81;5055704;28;1973;-78
2022/02/23 04:05:25;;;;;;;;;;;;;;;22.25;27.19;97780.41;5056894;28;935;-77
2022/02/23 04:07:51;;;;;;;;;;;;;;;21.99;27.55;97796.59;5055645;28;1233;-78
2022/02/23 04:10:19;;;;;;;;;;;;;;;22.04;27.30;97798.88;5057031;28;1016;-77
2022/02/23 04:12:45;;;;;;;;;;;;;;;22.23;27.24;97805.59;5056118;28;1115;-77
2022/02/23 04:15:11;;;;;;;;;;;;;;;22.63;26.62;97798.16;5056635;28;941;-77
2022/02/23 04:17:37;;;;;;;;;;;;;;;22.38;26.91;97795.34;5015496;28;1034;-78
2022/02/23 04:20:03;;;;;;;;;;;;;;;22.07;27.41;97801.59;5016586;28;1138;-78
2022/02/23 04:22:29;;;;;;;;;;;;;;;21.97;27.25;97794.22;5030687;28;954;-77
2022/02/23 04:24:54;;;;;;;;;;;;;;;22.04;27.64;97798.88;5036374;28;1978;-78
2022/02/23 04:27:20;;;;;;;;;;;;;;;22.42;26.88;97796.03;5035695;28;955;-78
2022/02/23 04:29:46;;;;;;;;;;;;;;;22.57;26.57;97802.03;5035760;28;1018;-77
2022/02/23 04:32:12;;;;;;;;;;;;;;;22.17;26.92;97802.50;5035587;28;1214;-78
2022/02/23 04:34:37;;;;;;;;;;;;;;;22.15;26.69;97805.00;5035654;28;1058;-78
2022/02/23 04:37:03;;;;;;;;;;;;;;;21.94;27.08;97817.78;5035766;28;1233;-79
2022/02/23 04:39:28;;;;;;;;;;;;;;;21.91;27.66;97817.88;5035706;28;983;-78
2022/02/23 04:41:54;;;;;;;;;;;;;;;22.30;27.24;97825.97;5035584;28;1144;-78
2022/02/23 04:44:19;;;;;;;;;;;;;;;22.49;26.75;97817.72;5035539;28;1910;-78
2022/02/23 04:46:45;;;;;;;;;;;;;;;22.34;26.74;97823.84;5035398;28;1043;-79
2022/02/23 04:49:10;;;;;;;;;;;;;;;21.94;27.58;97834.00;5066298;28;932;-77
2022/02/23 04:51:38;;;;;;;;;;;;;;;22.02;27.11;97841.84;5077961;28;904;-78
2022/02/23 04:54:03;;;;;;;;;;;;;;;22.12;27.31;97839.13;5077303;28;931;-77
2022/02/23 04:56:28;;;;;;;;;;;;;;;22.34;27.16;97843.69;5078158;28;888;-77
2022/02/23 04:58:54;;;;;;;;;;;;;;;22.50;26.80;97839.13;5077165;28;954;-78
2022/02/23 05:01:19;;;;;;;;;;;;;;;22.15;27.13;97858.06;5077622;28;1271;-78
2022/02/23 05:03:45;;;;;;;;;;;;;;;22.12;27.10;97858.97;5057803;28;1902;-77
2022/02/23 05:06:10;;;;;;;;;;;;;;;21.97;27.36;97858.59;5078112;28;896;-78
2022/02/23 05:08:36;;;;;;;;;;;;;;;22.12;27.51;97851.25;5077343;28;900;-78
2022/02/23 05:11:01;;;;;;;;;;;;;;;22.47;26.87;97860.66;5077797;28;897;-78
2022/02/23 05:13:27;;;;;;;;;;;;;;;22.62;26.38;97855.31;5074893;28;1019;-78
2022/02/23 05:15:53;;;;;;;;;;;;;;;22.27;26.81;97863.72;5077345;28;1134;-78
2022/02/23 05:18:18;;;;;;;;;;;;;;;22.09;27.14;97863.47;5076931;28;885;-78
2022/02/23 05:20:44;;;;;;;;;;;;;;;21.81;27.71;97870.78;5058866;28;1008;-78
2022/02/23 05:23:10;;;;;;;;;;;;;;;22.46;26.82;97864.75;5076645;28;1906;-78
2022/02/23 05:25:35;;;;;;;;;;;;;;;22.64;26.68;97869.88;5077912;28;862;-77
2022/02/23 05:28:01;;;;;;;;;;;;;;;22.04;26.89;97873.31;5057379;28;1136;-78
2022/02/23 05:30:26;;;;;;;;;;;;;;;22.05;27.07;97877.75;5077579;28;961;-78
2022/02/23 05:32:51;;;;;;;;;;;;;;;21.98;27.15;97880.81;5057189;28;946;-77
2022/02/23 05:35:17;;;;;;;;;;;;;;;22.39;27.18;97889.72;5077238;28;951;-78
2022/02/23 05:37:43;;;;;;;;;;;;;;;22.60;26.68;97897.53;5076170;28;920;-77
2022/02/23 05:40:08;;;;;;;;;;;;;;;22.29;26.91;97906.59;5077123;28;1072;-77
2022/02/23 05:42:34;;;;;;;;;;;;;;;22.10;26.79;97899.06;5076717;28;1042;-78
2022/02/23 05:44:59;;;;;;;;;;;;;;;21.97;26.97;97901.88;5077257;28;1906;-76
2022/02/23 05:47:25;;;;;;;;;;;;;;;22.04;27.55;97906.53;5076368;28;932;-78
2022/02/23 05:49:50;;;;;;;;;;;;;;;22.31;26.90;97908.97;5076774;28;1015;-78
2022/02/23 05:52:16;;;;;;;;;;;;;;;22.47;26.34;97908.06;5076085;28;917;-78
2022/02/23 05:54:42;;;;;;;;;;;;;;;22.04;26.99;97901.66;5076570;28;982;-76
2022/02/23 05:57:07;;;;;;;;;;;;;;;21.87;27.10;97907.88;5076679;28;933;-78
2022/02/23 05:59:33;;;;;;;;;;;;;;;21.98;27.25;97919.66;5076108;28;979;-76
2022/02/23 06:01:58;;;;;;;;;;;;;;;22.14;27.31;97922.44;5076562;28;1071;-77
2022/02/23 06:04:24;;;;;;;;;;;;;;;22.40;26.58;97925.31;5057201;28;1887;-78
2022/02/23 06:06:49;;;;;;;;;;;;;;;22.61;26.36;97927.47;5077353;28;922;-78
2022/02/23 06:09:15;;;;;;;;;;;;;;;22.25;26.49;97927.78;5074140;28;1127;-77
2022/02/23 06:11:41;;;;;;;;;;;;;;;22.05;26.90;97930.78;5076691;28;868;-78
2022/02/23 06:14:06;;;;;;;;;;;;;;;21.91;27.09;97934.81;5076780;28;893;-78
2022/02/23 06:16:32;;;;;;;;;;;;;;;22.44;26.41;97937.34;5076443;28;1007;-77
2022/02/23 06:18:57;;;;;;;;;;;;;;;22.66;26.03;97935.44;5075571;28;948;-78
2022/02/23 06:21:23;;;;;;;;;;;;;;;22.22;26.55;97940.81;5057248;28;998;-76
2022/02/23 06:23:49;;;;;;;;;;;;;;;22.05;26.84;97936.44;5053427;28;1902;-83
2022/02/23 06:26:15;;;;;;;;;;;;;;;22.06;26.86;97955.03;5054801;28;975;-77
2022/02/23 06:28:40;;;;;;;;;;;;;;;22.05;27.24;97947.78;5053830;28;994;-78
2022/02/23 06:31:06;;;;;;;;;;;;;;;22.42;26.41;97954.00;5057411;28;892;-80
2022/02/23 06:33:32;;;;;;;;;;;;;;;22.64;26.23;97954.94;5057097;28;1203;-79
2022/02/23 06:35:57;;;;;;;;;;;;;;;22.21;26.85;97967.56;5082665;28;1253;-81
2022/02/23 06:38:23;;;;;;;;;;;;;;;22.03;26.89;97968.06;5084878;28;1361;-80
2022/02/23 06:40:48;;;;;;;;;;;;;;;21.81;27.45;97973.56;5087513;28;1297;-78
2022/02/23 06:43:15;;;;;;;;;;;;;;;21.96;27.29;97984.47;5085448;28;1906;-80
2022/02/23 06:45:40;;;;;;;;;;;;;;;22.50;26.39;97978.84;5084325;28;1287;-81
2022/02/23 06:48:06;;;;;;;;;;;;;;;22.62;26.04;97985.78;5084790;28;1376;-80
2022/02/23 06:50:32;;;;;;;;;;;;;;;22.80;26.05;97979.56;5088837;28;1366;-76
2022/02/23 06:52:57;;;;;;;;;;;;;;;22.39;26.23;97986.91;5083105;28;1384;-81
2022/02/23 06:55:23;;;;;;;;;;;;;;;22.22;26.53;97991.03;5088128;28;1357;-79
2022/02/23 06:57:48;;;;;;;;;;;;;;;22.13;26.61;97994.53;5107960;28;1282;-81
2022/02/23 07:00:14;;;;;;;;;;;;;;;22.05;27.09;97987.44;5106124;28;1310;-80
2022/02/23 07:02:40;;;;;;;;;;;;;;;22.15;26.75;97997.72;5097965;28;976;-80
2022/02/23 07:05:06;;;;;;;;;;;;;;;22.02;27.00;97996.84;5104092;28;1974;-80
2022/02/23 07:07:32;;;;;;;;;;;;;;;22.03;26.82;98004.91;5083152;28;999;-80
2022/02/23 07:09:57;;;;;;;;;;;;;;;21.97;27.15;98017.25;5104778;28;954;-80
2022/02/23 07:12:23;;;;;;;;;;;;;;;21.99;26.89;98018.38;5103231;28;979;-79
2022/02/23 07:14:49;;;;;;;;;;;;;;;22.00;27.09;98013.50;5085682;28;885;-80
2022/02/23 07:17:14;;;;;;;;;;;;;;;21.74;27.26;98019.06;5103211;28;898;-80
2022/02/23 07:19:40;;;;;;;;;;;;;;;21.89;26.83;98027.97;5103643;28;914;-80
2022/02/23 07:22:06;;;;;;;;;;;;;;;22.31;26.39;98028.81;5103011;28;826;-81
2022/02/23 07:24:32;;;;;;;;;;;;;;;22.45;26.10;98035.34;5103060;28;1909;-79
2022/02/23 07:26:58;;;;;;;;;;;;;;;22.49;25.95;98033.19;5102638;28;1207;-79
2022/02/23 07:29:23;;;;;;;;;;;;;;;22.11;26.47;98042.34;5101508;28;947;-80
2022/02/23 07:31:49;;;;;;;;;;;;;;;22.05;26.57;98038.47;5104021;28;1024;-79
2022/02/23 07:34:15;;;;;;;;;;;;;;;22.09;26.59;98039.94;5102214;28;1034;-80
2022/02/23 07:36:41;;;;;;;;;;;;;;;22.34;26.50;98039.28;5103706;28;1013;-79
2022/02/23 07:39:07;;;;;;;;;;;;;;;22.66;25.62;98048.88;5101998;28;985;-80
2022/02/23 07:41:33;;;;;;;;;;;;;;;22.23;26.02;98047.28;5080049;28;1249;-81
2022/02/23 07:43:58;;;;;;;;;;;;;;;22.08;26.24;98048.91;5078803;28;1976;-79
2022/02/23 07:46:24;;;;;;;;;;;;;;;22.08;26.49;98043.25;5080562;28;989;-80
2022/02/23 07:48:53;;;;;;;;;;;;;;;22.31;26.53;98045.03;5079172;28;981;-80
2022/02/23 07:51:18;;;;;;;;;;;;;;;22.59;25.92;98054.78;5080620;28;964;-79
2022/02/23 07:53:44;;;;;;;;;;;;;;;22.44;25.67;98050.75;5078675;28;993;-76
2022/02/23 07:56:10;;;;;;;;;;;;;;;22.16;26.08;98058.81;5080491;28;994;-80
2022/02/23 07:58:35;;;;;;;;;;;;;;;21.99;26.34;98062.91;5078762;28;973;-81
2022/02/23 08:01:01;;;;;;;;;;;;;;;21.99;26.76;98065.75;5062657;28;1097;-80
2022/02/23 08:03:27;;;;;;;;;;;;;;;22.32;26.40;98069.28;5078215;28;1895;-80
2022/02/23 08:05:53;;;;;;;;;;;;;;;22.70;25.80;98072.25;5059805;28;940;-80
2022/02/23 08:08:19;;;;;;;;;;;;;;;22.27;25.92;98072.69;5057986;28;939;-80
2022/02/23 08:10:45;;;;;;;;;;;;;;;22.16;26.26;98078.66;5059961;28;967;-79
2022/02/23 08:13:11;;;;;;;;;;;;;;;22.07;26.28;98075.63;5057668;28;1154;-79
2022/02/23 08:21:05;;;;;;;;;;;;;;;22.10;26.13;98086.09;5059940;28;973;-80
2022/02/23 08:23:30;;;;;;;;;;;;;;;21.89;26.35;98075.31;5057878;28;1905;-79
2022/02/23 08:25:56;;;;;;;;;;;;;;;21.95;26.45;98079.22;5059420;28;1207;-80
2022/02/23 08:28:21;;;;;;;;;;;;;;;22.07;26.39;98081.28;5018120;28;1044;-80
2022/02/23 08:30:46;;;;;;;;;;;;;;;22.41;25.92;98082.84;5020000;28;1179;-80
2022/02/23 08:33:14;;;;;;;;;;;;;;;22.32;25.65;98067.25;5017459;28;950;-79
2022/02/23 08:35:40;;;;;;;;;;;;;;;22.20;25.95;98068.00;5020462;28;1218;-81
2022/02/23 08:38:11;;;;;;;;;;;;;;;22.09;26.24;98067.50;5017768;28;1027;-80
2022/02/23 08:40:46;;;;;;;;;;;;;;;21.88;26.53;98063.19;5019882;28;934;-81
2022/02/23 08:43:11;;;;;;;;;;;;;;;22.30;26.07;98072.59;4986797;28;1902;-80
2022/02/23 08:45:37;;;;;;;;;;;;;;;22.60;25.69;98076.19;5000727;28;960;-77
2022/02/23 08:48:03;;;;;;;;;;;;;;;22.32;25.81;98081.44;4996587;28;1018;-80
2022/02/23 08:50:29;;;;;;;;;;;;;;;22.16;25.97;98083.53;4994067;28;1262;-80
2022/02/23 08:52:54;;;;;;;;;;;;;;;21.94;26.53;98077.63;4986783;28;1238;-79
2022/02/23 08:55:20;;;;;;;;;;;;;;;21.95;26.49;98080.00;4990379;28;1262;-77
2022/02/23 08:57:45;;;;;;;;;;;;;;;22.25;26.27;98086.50;4986173;28;1302;-80
2022/02/23 09:00:11;;;;;;;;;;;;;;;22.44;25.68;98087.63;5014136;28;1016;-76
2022/02/23 09:02:36;;;;;;;;;;;;;;;22.54;25.44;98098.66;5017358;28;1176;-81
2022/02/23 09:05:02;;;;;;;;;;;;;;;22.30;25.73;98095.28;4986254;28;1906;-80
2022/02/23 09:07:27;;;;;;;;;;;;;;;22.06;26.05;98091.03;5017914;28;972;-81
2022/02/23 09:09:53;;;;;;;;;;;;;;;22.15;26.40;98098.94;5018600;28;1002;-79
2022/02/23 09:12:19;;;;;;;;;;;;;;;22.60;25.72;98101.72;5018578;28;965;-80
2022/02/23 09:14:45;;;;;;;;;;;;;;;22.53;25.30;98107.59;5018478;28;1223;-79
2022/02/23 09:17:10;;;;;;;;;;;;;;;22.25;25.86;98106.34;5032557;28;983;-80
2022/02/23 09:19:36;;;;;;;;;;;;;;;22.06;25.94;98102.38;5021474;28;968;-81
2022/02/23 09:22:01;;;;;;;;;;;;;;;21.87;26.33;98111.81;5039221;28;1213;-79
2022/02/23 09:24:27;;;;;;;;;;;;;;;22.30;26.00;98112.28;5038134;28;1983;-80
2022/02/23 09:26:52;;;;;;;;;;;;;;;22.54;25.53;98114.88;5053287;28;854;-80
2022/02/23 09:29:18;;;;;;;;;;;;;;;22.28;25.57;98114.78;5057233;28;1177;-81
2022/02/23 09:31:43;;;;;;;;;;;;;;;22.15;26.13;98111.06;5058773;28;1010;-81
2022/02/23 09:34:09;;;;;;;;;;;;;;;22.04;25.83;98110.53;5056380;28;925;-80
2022/02/23 09:36:38;;;;;;;;;;;;;;;22.02;26.28;98118.66;5041697;28;1033;-80
2022/02/23 09:39:03;;;;;;;;;;;;;;;22.00;26.44;98129.66;5056295;28;971;-80
2022/02/23 09:41:29;;;;;;;;;;;;;;;22.45;25.47;98137.41;5058134;28;1233;-80
2022/02/23 09:43:54;;;;;;;;;;;;;;;22.65;24.91;98140.09;4997006;28;1918;-80
2022/02/23 09:46:21;;;;;;;;;;;;;;;22.17;26.03;98131.25;5002788;28;1176;-80
2022/02/23 09:48:49;;;;;;;;;;;;;;;22.06;25.85;98142.03;5000217;28;1029;-80
2022/02/23 09:51:15;;;;;;;;;;;;;;;22.06;25.99;98136.38;5019178;28;980;-81
2022/02/23 09:53:45;;;;;;;;;;;;;;;22.22;25.76;98129.91;5016649;28;913;-80
2022/02/23 09:56:12;;;;;;;;;;;;;;;22.52;25.28;98126.63;4998452;28;1021;-80
2022/02/23 09:58:37;;;;;;;;;;;;;;;22.44;25.13;98127.31;4997094;28;1149;-80
2022/02/23 10:01:04;;;;;;;;;;;;;;;22.12;25.94;98128.16;4998327;28;1259;-80
2022/02/23 10:03:30;;;;;;;;;;;;;;;21.91;25.99;98129.50;4997016;28;1906;-81
2022/02/23 10:05:55;;;;;;;;;;;;;;;22.07;25.96;98126.63;4982650;28;1332;-80
2022/02/23 10:08:21;;;;;;;;;;;;;;;22.51;25.59;98127.09;4996608;28;954;-80
2022/02/23 10:10:49;;;;;;;;;;;;;;;22.41;25.31;98128.97;4996005;28;911;-80
2022/02/23 10:13:16;;;;;;;;;;;;;;;22.22;25.57;98135.59;4995976;28;2186;-78
2022/02/23 10:15:42;;;;;;;;;;;;;;;22.16;25.55;98120.38;4982639;28;1052;-79
2022/02/23 10:18:08;;;;;;;;;;;;;;;22.06;25.87;98130.72;4977017;28;921;-80
2022/02/23 10:20:36;;;;;;;;;;;;;;;21.77;26.64;98131.47;4986751;28;1003;-80
2022/02/23 10:23:05;;;;;;;;;;;;;;;21.87;26.22;98123.16;5016007;28;939;-79
2022/02/23 10:25:31;;;;;;;;;;;;;;;22.36;25.57;98129.53;5002223;28;1895;-80
2022/02/23 10:28:09;;;;;;;;;;;;;;;22.56;25.34;98135.06;5051402;28;985;-80
2022/02/23 10:30:36;;;;;;;;;;;;;;;22.22;25.50;98122.19;5041832;28;991;-81
2022/02/23 10:33:13;;;;;;;;;;;;;;;22.09;26.00;98112.84;5058135;28;861;-80
2022/02/23 10:35:41;;;;;;;;;;;;;;;22.05;25.93;98112.91;5062226;28;906;-80
2022/02/23 10:38:07;;;;;;;;;;;;;;;22.01;25.87;98111.41;5057053;28;954;-79
2022/02/23 10:40:40;;;;;;;;;;;;;;;21.95;26.03;98113.19;5060781;28;880;-80
2022/02/23 10:43:25;;;;;;;;;;;;;;;22.02;26.31;98108.16;5057650;28;931;-77
2022/02/23 10:45:52;;;;;;;;;;;;;;;22.44;25.61;98104.63;4997829;28;1163;-80
2022/02/23 10:48:29;;;;;;;;;;;;;;;22.62;25.15;98104.91;4996273;28;935;-78
2022/02/23 10:50:55;;;;;;;;;;;;;;;22.11;25.99;98099.03;4982010;28;1053;-79
2022/02/23 10:53:27;;;;;;;;;;;;;;;22.00;26.07;98092.84;4996666;28;942;-79
2022/02/23 10:55:53;;;;;;;;;;;;;;;21.92;26.27;98088.63;4998416;28;1100;-79
2022/02/23 10:58:18;;;;;;;;;;;;;;;22.25;25.59;98092.19;4996163;28;1085;-80
2022/02/23 11:00:44;;;;;;;;;;;;;;;22.55;25.51;98090.94;4998512;28;932;-79
2022/02/23 11:03:13;;;;;;;;;;;;;;;22.39;25.27;98086.13;4995842;28;1037;-81
2022/02/23 11:05:39;;;;;;;;;;;;;;;21.99;25.92;98079.91;4998449;28;1887;-77
2022/02/23 11:08:11;;;;;;;;;;;;;;;21.90;26.45;98077.72;4995738;28;898;-80
2022/02/23 11:10:36;;;;;;;;;;;;;;;22.40;25.42;98086.91;4998845;28;955;-80
2022/02/23 11:13:02;;;;;;;;;;;;;;;22.63;25.02;98078.13;4994814;28;1105;-80
2022/02/23 11:15:27;;;;;;;;;;;;;;;22.33;25.30;98085.88;4998297;28;968;-78
2022/02/23 11:17:53;;;;;;;;;;;;;;;22.24;25.46;98080.06;4946867;28;983;-78
2022/02/23 11:20:21;;;;;;;;;;;;;;;21.94;26.02;98077.63;4998711;28;1018;-80
2022/02/23 11:22:59;;;;;;;;;;;;;;;21.50;26.98;98091.28;5013723;28;1018;-78
2022/02/23 11:25:25;;;;;;;;;;;;;;;22.41;25.50;98082.84;5040185;28;1891;-81
2022/02/23 11:27:53;;;;;;;;;;;;;;;22.61;25.24;98074.94;5014854;28;1041;-80
2022/02/23 11:30:19;;;;;;;;;;;;;;;22.19;25.88;98072.09;5002066;28;1000;-80
2022/02/23 11:32:44;;;;;;;;;;;;;;;22.06;25.92;98079.72;4975553;28;908;-80
2022/02/23 11:35:13;;;;;;;;;;;;;;;22.02;25.79;98081.84;4978990;28;982;-81
2022/02/23 11:37:41;;;;;;;;;;;;;;;22.16;25.77;98081.47;4975964;28;1043;-79
2022/02/23 11:40:09;;;;;;;;;;;;;;;22.47;25.39;98076.16;4978655;28;954;-79
2022/02/23 11:42:35;;;;;;;;;;;;;;;22.28;25.45;98075.09;4975892;28;990;-81
2022/02/23 11:45:07;;;;;;;;;;;;;;;22.03;25.80;98074.94;4977341;28;1895;-80
2022/02/23 11:47:33;;;;;;;;;;;;;;;21.85;26.30;98076.19;4976438;28;1015;-80
2022/02/23 11:50:05;;;;;;;;;;;;;;;21.98;25.86;98069.81;4978272;28;937;-80
2022/02/23 11:52:31;;;;;;;;;;;;;;;22.04;26.06;98065.19;4979360;28;1025;-80
2022/02/23 11:55:12;;;;;;;;;;;;;;;22.40;25.24;98069.91;4981376;28;970;-80
2022/02/23 11:57:47;;;;;;;;;;;;;;;22.47;25.15;98069.69;4962783;28;1007;-81
2022/02/23 12:00:14;;;;;;;;;;;;;;;22.13;25.74;98064.59;4984990;28;1193;-81
2022/02/23 12:02:39;;;;;;;;;;;;;;;21.97;25.71;98076.75;5013759;28;1524;-80
2022/02/23 12:05:06;;;;;;;;;;;;;;;21.97;25.75;98076.75;5060655;28;1921;-79
2022/02/23 12:07:47;;;;;;;;;;;;;;;21.91;25.99;98073.63;5058280;28;1053;-80
2022/02/23 12:10:13;;;;;;;;;;;;;;;21.92;25.94;98074.44;5040188;28;1057;-80
2022/02/23 12:12:39;;;;;;;;;;;;;;;22.35;25.27;98086.22;5037734;28;955;-81
2022/02/23 12:15:08;;;;;;;;;;;;;;;22.50;25.25;98091.50;5025759;28;992;-80
2022/02/23 12:17:42;;;;;;;;;;;;;;;22.23;25.48;98094.69;5058455;28;886;-80
2022/02/23 12:20:08;;;;;;;;;;;;;;;22.06;25.61;98094.66;5060168;28;1003;-77
2022/02/23 12:22:36;;;;;;;;;;;;;;;21.92;25.93;98094.28;5057897;28;1264;-80
2022/02/23 12:25:04;;;;;;;;;;;;;;;22.31;25.50;98102.53;5043002;28;1947;-81
2022/02/23 12:27:30;;;;;;;;;;;;;;;22.59;24.91;98100.94;5058667;28;1069;-80
2022/02/23 12:29:55;;;;;;;;;;;;;;;22.52;24.71;98100.31;5059340;28;1016;-79
2022/02/23 12:32:21;;;;;;;;;;;;;;;22.10;25.68;98091.75;5058201;28;1019;-81
2022/02/23 12:34:48;;;;;;;;;;;;;;;21.75;26.11;98094.28;5019151;28;1094;-80
2022/02/23 12:37:13;;;;;;;;;;;;;;;21.91;25.80;98089.84;5018690;28;1011;-79
2022/02/23 12:39:39;;;;;;;;;;;;;;;22.44;25.27;98104.63;4998634;28;1166;-80
2022/02/23 12:42:06;;;;;;;;;;;;;;;22.63;24.80;98100.81;4966713;28;952;-81
2022/02/23 12:44:32;;;;;;;;;;;;;;;22.24;25.54;98101.94;4978963;28;1910;-79
2022/02/23 12:46:59;;;;;;;;;;;;;;;22.00;25.64;98101.34;4961341;28;1035;-80
2022/02/23 12:49:24;;;;;;;;;;;;;;;21.98;25.84;98095.31;4959396;28;945;-80
2022/02/23 12:51:50;;;;;;;;;;;;;;;21.98;25.79;98098.16;4961230;28;966;-80
2022/02/23 12:54:16;;;;;;;;;;;;;;;22.14;25.89;98101.00;4962169;28;1923;-76
2022/02/23 12:56:43;;;;;;;;;;;;;;;22.83;24.84;98100.63;4970633;28;1768;-73
2022/02/23 12:59:12;;;;;;;;;;;;;;;23.28;24.07;98094.81;4970623;28;1667;-73
2022/02/23 13:01:39;;;;;;;;;;;;;;;23.39;23.83;98095.25;4973480;28;1880;-72